Terminal Aerodrome Forecast
Issued by NWS

Home | Current Version | Previous Version | Text Only | Print | Product List | Glossary On
Versions: 1 2 3 4 5 6 7 8 9 10 11 12 13 14 15 16 17 18
000
FTUS45 KPIH 010300 AAB
TAFSUN
TAF AMD
KSUN 010302Z 0103/0124 31006KT P6SM VCSH FEW080 SCT150 SCT200
     FM011600 24006KT P6SM VCTS FEW080CB SCT150
      AMD LTD TO CLD VIS AND WIND 0105/0113=

USA.gov is the U.S. government's official web portal to all federal, state and local government web resources and services.